Time;durP1;ratioP1;P1;durP2;ratioP2;P2;SDS_P1;SDS_P2;PMS_P1;PMS_P2;Temp;Humidity;BMP_temperature;BMP_pressure;BME280_temperature;BME280_humidity;BME280_pressure;Samples;Min_cycle;Max_cycle;Signal;HPM_P1;HPM_P2
2021/12/08 05:32:18;;;;;;;;;2.75;0.00;;;;;6.17;69.97;99337.00;5024094;23;45473;-46
2021/12/08 05:34:45;;;;;;;;;0.50;0.00;;;;;6.24;69.71;99343.75;4920163;28;45344;-46
2021/12/08 05:37:15;;;;;;;;;0.75;0.75;;;;;6.26;69.49;99349.84;4921045;28;45482;-46
2021/12/08 05:39:41;;;;;;;;;0.00;0.00;;;;;6.30;69.15;99346.94;4921322;28;47100;-47
2021/12/08 05:42:11;;;;;;;;;0.50;0.00;;;;;6.41;69.03;99351.72;4920983;28;45486;-46
2021/12/08 05:44:38;;;;;;;;;0.00;0.00;;;;;6.47;68.77;99359.38;4921041;28;45241;-47
2021/12/08 05:47:08;;;;;;;;;1.00;1.00;;;;;6.47;68.79;99356.72;4920742;28;45449;-46
2021/12/08 05:49:33;;;;;;;;;0.75;0.75;;;;;6.46;68.72;99347.03;4920593;28;48149;-47
2021/12/08 05:51:59;;;;;;;;;5.75;0.00;;;;;6.47;68.47;99352.25;4922585;28;45387;-49
2021/12/08 05:54:35;;;;;;;;;1.50;0.00;;;;;6.46;68.57;99363.84;4924087;28;45542;-47
2021/12/08 05:57:14;;;;;;;;;1.50;0.00;;;;;6.51;68.65;99368.09;4924374;28;45380;-49
2021/12/08 05:59:40;;;;;;;;;1.50;0.00;;;;;6.41;68.88;99341.94;4923906;28;45359;-47
2021/12/08 06:02:15;;;;;;;;;0.00;0.00;;;;;6.45;68.76;99346.19;4924155;28;45335;-47
2021/12/08 06:04:41;;;;;;;;;0.00;0.00;;;;;6.39;68.72;99332.31;4924081;28;45339;-46
2021/12/08 06:07:07;;;;;;;;;1.00;1.00;;;;;6.49;68.51;99341.53;4924526;28;45478;-46
2021/12/08 06:09:37;;;;;;;;;1.25;1.00;;;;;6.50;68.85;99347.72;4923867;28;47238;-46
2021/12/08 06:12:04;;;;;;;;;2.00;1.00;;;;;6.47;68.58;99352.25;4924075;28;45788;-48
2021/12/08 06:14:32;;;;;;;;;0.00;0.00;;;;;6.47;68.74;99352.25;4924335;28;45232;-47
2021/12/08 06:17:07;;;;;;;;;1.00;0.50;;;;;6.51;68.59;99354.78;4924075;28;45445;-46
2021/12/08 06:19:36;;;;;;;;;0.50;0.50;;;;;6.41;68.89;99346.41;4924326;28;45300;-46
2021/12/08 06:22:01;;;;;;;;;0.25;0.00;;;;;6.36;68.41;99336.00;4924352;28;45277;-47
2021/12/08 06:24:27;;;;;;;;;0.00;0.00;;;;;6.20;68.97;99339.53;4924298;28;45352;-48
2021/12/08 06:26:52;;;;;;;;;1.50;0.00;;;;;6.17;69.54;99347.66;4924150;28;45220;-50
2021/12/08 06:29:19;;;;;;;;;1.75;0.00;;;;;6.17;69.39;99347.66;4924146;28;46971;-46
2021/12/08 06:31:49;;;;;;;;;0.50;0.50;;;;;6.15;68.92;99361.03;4923899;28;45633;-46
2021/12/08 06:34:15;;;;;;;;;0.75;0.00;;;;;6.06;69.68;99372.97;4911719;28;45388;-47
2021/12/08 06:36:48;;;;;;;;;3.00;0.25;;;;;5.92;69.65;99362.16;4923990;28;45277;-48
2021/12/08 06:39:21;;;;;;;;;1.00;0.00;;;;;5.88;70.18;99357.06;4924131;28;45332;-47
2021/12/08 06:41:52;;;;;;;;;0.00;0.00;;;;;5.93;70.08;99366.56;4923768;28;45368;-46
2021/12/08 06:44:25;;;;;;;;;1.00;0.00;;;;;5.91;69.92;99365.75;4923967;28;45358;-47
2021/12/08 06:46:52;;;;;;;;;1.50;0.50;;;;;5.86;70.41;99373.09;4923727;28;45433;-48
2021/12/08 06:49:19;;;;;;;;;1.00;0.00;;;;;5.84;70.28;99364.31;4923484;28;45362;-45
2021/12/08 06:51:51;;;;;;;;;1.00;0.00;;;;;5.82;70.80;99352.88;4923857;28;45295;-48
2021/12/08 06:54:24;;;;;;;;;1.25;0.00;;;;;5.87;69.89;99353.50;4923958;28;45403;-46
2021/12/08 06:56:55;;;;;;;;;2.00;1.00;;;;;5.87;69.97;99358.81;4923480;28;45463;-47
2021/12/08 06:59:25;;;;;;;;;5.00;1.00;;;;;5.85;70.11;99362.50;4923581;28;46246;-48
2021/12/08 07:02:07;;;;;;;;;2.00;0.00;;;;;5.75;70.46;99362.09;4924274;28;45299;-47
2021/12/08 07:05:27;;;;;;;;;3.00;1.25;;;;;5.59;71.07;99339.84;4918544;28;45342;-50
2021/12/08 07:07:30;;;;;;;;;1.00;1.00;;;;;5.77;71.06;99364.69;4910860;28;45487;-48
2021/12/08 07:10:05;;;;;;;;;1.75;1.00;;;;;5.76;71.27;99363.81;4923355;28;45701;-47
2021/12/08 07:12:35;;;;;;;;;0.00;0.00;;;;;5.82;70.96;99349.34;4922892;28;45365;-50
2021/12/08 07:15:18;;;;;;;;;3.00;0.25;;;;;5.85;70.88;99376.69;4923633;28;45380;-47
2021/12/08 07:17:46;;;;;;;;;1.00;1.00;;;;;5.81;70.94;99359.13;4923218;28;46092;-46
2021/12/08 07:20:43;;;;;;;;;2.25;0.00;;;;;5.91;70.87;99365.75;4923274;28;46150;-50
2021/12/08 07:23:05;;;;;;;;;2.00;0.50;;;;;5.79;70.58;99362.78;4923348;28;45304;-47
2021/12/08 07:25:33;;;;;;;;;5.50;0.75;;;;;5.74;70.83;99376.31;4923047;28;45249;-47
2021/12/08 07:27:59;;;;;;;;;0.00;0.00;;;;;5.74;70.96;99400.25;4923389;28;45518;-45
2021/12/08 07:30:47;;;;;;;;;2.25;1.00;;;;;5.76;70.98;99384.22;4922646;28;45327;-46
2021/12/08 07:33:12;;;;;;;;;1.00;1.00;;;;;5.77;70.83;99386.81;4923179;28;45332;-46
2021/12/08 07:35:43;;;;;;;;;1.25;0.50;;;;;5.83;71.36;99385.66;4923245;28;45504;-49
2021/12/08 07:38:12;;;;;;;;;1.25;1.00;;;;;5.79;70.61;99386.72;4923056;28;45323;-47
2021/12/08 07:40:50;;;;;;;;;3.00;1.00;;;;;5.83;71.09;99404.28;4922578;28;47294;-46
2021/12/08 07:43:20;;;;;;;;;1.25;0.75;;;;;5.86;70.63;99412.97;4923067;28;45240;-46
2021/12/08 07:45:49;;;;;;;;;3.00;1.00;;;;;5.93;70.22;99408.25;4923070;28;45450;-46
2021/12/08 07:48:23;;;;;;;;;0.75;0.75;;;;;6.00;70.27;99429.16;4922850;28;45450;-50
2021/12/08 07:51:03;;;;;;;;;2.00;1.00;;;;;6.08;70.27;99431.44;4922978;28;46109;-48
2021/12/08 07:53:31;;;;;;;;;4.25;1.00;;;;;6.16;69.69;99426.59;4922619;28;45606;-50
2021/12/08 07:56:03;;;;;;;;;2.00;1.00;;;;;6.22;69.97;99418.31;4922725;28;45315;-47
2021/12/08 07:58:31;;;;;;;;;1.00;1.00;;;;;6.25;69.04;99434.16;4922856;28;45276;-47
2021/12/08 08:01:02;;;;;;;;;2.50;1.00;;;;;6.21;69.78;99429.91;4922633;28;46124;-46
2021/12/08 08:03:31;;;;;;;;;4.00;0.00;;;;;6.18;69.59;99435.38;4922673;28;45462;-45
2021/12/08 08:06:00;;;;;;;;;1.00;1.00;;;;;6.07;69.71;99422.59;4922668;28;45265;-49
2021/12/08 08:08:30;;;;;;;;;1.50;1.00;;;;;6.13;69.59;99417.91;4922761;28;45393;-47
2021/12/08 08:11:01;;;;;;;;;4.50;1.00;;;;;6.21;69.07;99421.09;4922207;28;47334;-45
2021/12/08 08:13:28;;;;;;;;;0.25;0.25;;;;;6.16;69.64;99426.59;4922580;28;45356;-49
2021/12/08 08:16:04;;;;;;;;;1.75;0.75;;;;;6.11;69.87;99422.47;4922098;28;45454;-48
2021/12/08 08:18:30;;;;;;;;;5.00;2.00;;;;;6.15;69.50;99422.22;4922425;28;46178;-47
2021/12/08 08:21:00;;;;;;;;;5.50;1.00;;;;;6.12;70.07;99421.53;4935344;28;45332;-49
2021/12/08 08:23:31;;;;;;;;;2.00;2.00;;;;;6.06;69.72;99420.88;4922419;28;45246;-46
2021/12/08 08:25:57;;;;;;;;;2.00;1.00;;;;;6.10;69.85;99431.38;4922251;28;45276;-46
2021/12/08 08:28:23;;;;;;;;;1.50;1.00;;;;;6.20;69.79;99427.34;4922321;28;45260;-48
2021/12/08 08:30:58;;;;;;;;;0.00;0.00;;;;;6.21;69.50;99431.72;4922155;28;45252;-47
2021/12/08 08:33:25;;;;;;;;;5.75;1.25;;;;;6.21;70.11;99437.03;4922144;28;45300;-47
2021/12/08 08:36:03;;;;;;;;;1.00;1.00;;;;;6.22;69.39;99428.97;4922775;28;45237;-49
2021/12/08 08:38:39;;;;;;;;;5.25;2.00;;;;;6.12;69.81;99432.19;4922476;28;46377;-50
2021/12/08 08:41:25;;;;;;;;;3.00;1.00;;;;;6.02;69.90;99453.03;4921897;28;46131;-47
2021/12/08 08:43:53;;;;;;;;;1.25;1.25;;;;;5.96;70.00;99442.66;4922092;28;45260;-46
2021/12/08 08:46:28;;;;;;;;;5.50;2.75;;;;;5.93;70.37;99454.34;4922346;28;45261;-47
2021/12/08 08:48:59;;;;;;;;;6.75;1.75;;;;;5.86;70.50;99439.56;4922139;28;45470;-46
2021/12/08 08:51:33;;;;;;;;;3.00;1.00;;;;;5.84;70.49;99449.41;4922006;28;45341;-47
2021/12/08 08:54:05;;;;;;;;;6.00;2.00;;;;;5.83;70.43;99437.03;4922055;28;45329;-47
2021/12/08 08:56:35;;;;;;;;;2.25;1.00;;;;;5.82;70.90;99426.47;4921937;28;45285;-48
2021/12/08 08:59:12;;;;;;;;;0.00;0.00;;;;;5.87;70.68;99427.13;4921837;28;45506;-49
2021/12/08 09:01:42;;;;;;;;;1.50;1.50;;;;;6.04;70.05;99430.72;4921803;28;45299;-47
2021/12/08 09:04:14;;;;;;;;;0.50;0.50;;;;;6.20;69.36;99430.00;4921818;28;45515;-45
2021/12/08 09:06:44;;;;;;;;;7.75;2.00;;;;;6.23;70.04;99441.34;4909537;28;45260;-45
2021/12/08 09:09:15;;;;;;;;;2.25;1.00;;;;;6.29;69.35;99445.53;4921643;28;46772;-47
2021/12/08 09:11:46;;;;;;;;;2.00;1.00;;;;;6.33;69.06;99439.94;4921734;28;45180;-47
2021/12/08 09:14:21;;;;;;;;;5.75;1.25;;;;;6.32;69.40;99437.34;4921494;28;45510;-46
2021/12/08 09:16:54;;;;;;;;;7.50;0.75;;;;;6.28;68.92;99444.66;4921774;28;45468;-46
2021/12/08 09:19:27;;;;;;;;;2.00;0.25;;;;;6.26;69.09;99443.84;4921572;28;45339;-45
2021/12/08 09:22:05;;;;;;;;;2.25;0.00;;;;;6.39;69.28;99468.06;4921707;28;48134;-47
2021/12/08 09:24:44;;;;;;;;;2.00;0.00;;;;;6.32;68.63;99456.00;4921592;28;45495;-46
2021/12/08 09:27:12;;;;;;;;;0.00;0.00;;;;;6.34;69.08;99457.66;4920469;28;45445;-48
2021/12/08 09:29:44;;;;;;;;;0.75;0.75;;;;;6.46;68.21;99469.50;4921885;28;45240;-49
2021/12/08 09:32:21;;;;;;;;;0.00;0.00;;;;;6.42;68.48;99467.91;4921343;28;46446;-46
2021/12/08 09:34:58;;;;;;;;;5.25;1.75;;;;;6.37;68.28;99461.97;4921579;28;45300;-48
2021/12/08 09:37:36;;;;;;;;;0.00;0.00;;;;;6.57;68.38;99476.94;4921729;28;45258;-47
2021/12/08 09:40:16;;;;;;;;;0.25;0.00;;;;;6.58;67.58;99476.88;4921504;28;46100;-48
2021/12/08 09:42:49;;;;;;;;;3.00;1.00;;;;;6.65;67.58;99486.25;4921300;28;47302;-47
2021/12/08 09:45:20;;;;;;;;;1.50;0.00;;;;;6.66;67.80;99479.13;4921287;28;45380;-46
2021/12/08 09:47:46;;;;;;;;;0.00;0.00;;;;;6.66;67.74;99484.47;4921784;28;45402;-49
2021/12/08 09:50:13;;;;;;;;;0.25;0.25;;;;;6.59;67.75;99461.75;4921284;28;45340;-46
2021/12/08 09:52:45;;;;;;;;;3.00;0.00;;;;;6.66;67.41;99488.00;4921598;28;46225;-46
2021/12/08 09:55:13;;;;;;;;;1.25;0.00;;;;;6.60;67.44;99469.66;4921306;28;45314;-47
2021/12/08 09:57:40;;;;;;;;;5.00;1.00;;;;;6.68;67.16;99477.28;4921351;28;45178;-45
2021/12/08 10:00:08;;;;;;;;;1.50;0.00;;;;;6.66;67.64;99465.81;4921191;28;45300;-45
2021/12/08 10:02:36;;;;;;;;;2.00;1.00;;;;;6.55;67.47;99461.03;4921067;28;46719;-47
2021/12/08 10:05:08;;;;;;;;;5.25;1.75;;;;;6.65;67.30;99464.97;4921139;28;45407;-46
2021/12/08 10:07:34;;;;;;;;;3.00;2.00;;;;;6.57;67.33;99448.50;4921207;28;45313;-48
2021/12/08 10:09:59;;;;;;;;;1.50;1.00;;;;;6.60;67.33;99461.69;4921280;28;45425;-47
2021/12/08 10:12:25;;;;;;;;;3.50;1.00;;;;;6.60;67.21;99453.69;4920618;28;46036;-47
2021/12/08 10:14:51;;;;;;;;;2.75;1.75;;;;;6.65;67.19;99456.09;4921205;28;45398;-48
2021/12/08 10:17:17;;;;;;;;;2.75;1.00;;;;;6.75;66.38;99455.56;4921030;28;45514;-46
2021/12/08 10:19:43;;;;;;;;;3.00;1.00;;;;;6.81;66.44;99447.25;4921029;28;45323;-49
2021/12/08 10:22:20;;;;;;;;;4.50;1.00;;;;;6.76;66.33;99432.47;4920779;28;46184;-50
2021/12/08 10:25:09;;;;;;;;;1.00;0.00;;;;;6.87;65.92;99470.09;4921031;28;45313;-49
2021/12/08 10:28:02;;;;;;;;;1.50;0.00;;;;;6.94;66.09;99468.81;4920791;28;45458;-48
2021/12/08 10:30:27;;;;;;;;;2.25;1.25;;;;;7.03;65.94;99471.03;4920230;28;45551;-49
2021/12/08 10:32:54;;;;;;;;;1.00;1.00;;;;;7.17;65.93;99462.28;4920941;28;45447;-45
2021/12/08 10:35:45;;;;;;;;;2.00;1.00;;;;;7.39;65.14;99470.03;4920788;28;45452;-50
2021/12/08 10:38:11;;;;;;;;;4.50;2.50;;;;;7.52;65.15;99458.63;4922520;28;45342;-46
2021/12/08 10:40:37;;;;;;;;;1.00;1.00;;;;;7.71;65.02;99463.81;4923632;28;46909;-47
2021/12/08 10:43:16;;;;;;;;;1.00;1.00;;;;;7.78;63.20;99451.00;4923886;28;46200;-47
2021/12/08 10:45:42;;;;;;;;;2.25;1.00;;;;;7.81;63.00;99453.50;4923741;28;45158;-50
2021/12/08 10:48:08;;;;;;;;;3.00;1.50;;;;;7.90;62.76;99445.00;4923912;28;45226;-49
2021/12/08 10:56:35;;;;;;;;;0.25;0.00;;;;;7.98;61.04;99454.31;4883372;29;45435;-46
2021/12/08 10:59:00;;;;;;;;;0.00;0.00;;;;;8.08;60.94;99465.28;4909450;28;45330;-46
2021/12/08 11:01:26;;;;;;;;;1.25;0.50;;;;;8.13;61.03;99449.03;4923430;28;45419;-48
2021/12/08 11:04:05;;;;;;;;;3.25;0.25;;;;;8.15;60.36;99450.69;4923277;28;46302;-48
2021/12/08 11:06:32;;;;;;;;;2.25;0.25;;;;;8.27;60.42;99455.31;4923805;28;45444;-46
2021/12/08 11:08:58;;;;;;;;;4.00;0.00;;;;;8.73;58.74;99448.22;4923680;28;45316;-47
2021/12/08 11:11:25;;;;;;;;;3.00;0.25;;;;;9.40;57.70;99459.31;4922044;28;45264;-45
2021/12/08 11:13:53;;;;;;;;;4.25;1.00;;;;;9.74;58.10;99450.06;4923240;28;46333;-46
2021/12/08 11:16:25;;;;;;;;;1.00;1.00;;;;;9.80;55.88;99455.88;4923279;28;45356;-46
2021/12/08 11:18:52;;;;;;;;;1.50;1.50;;;;;9.85;57.10;99461.81;4923326;28;45495;-45
2021/12/08 11:21:23;;;;;;;;;2.50;0.50;;;;;9.75;57.06;99460.66;4923630;28;45451;-47
2021/12/08 11:23:51;;;;;;;;;3.00;2.00;;;;;9.62;55.62;99461.50;4923152;28;46224;-48
2021/12/08 11:26:25;;;;;;;;;2.50;1.00;;;;;9.37;56.39;99456.81;4923398;28;45533;-47
2021/12/08 11:29:00;;;;;;;;;2.00;1.00;;;;;9.09;56.28;99446.97;4923378;28;45229;-45
2021/12/08 11:31:34;;;;;;;;;3.00;0.25;;;;;9.08;56.77;99445.25;4922817;28;45294;-46
2021/12/08 11:34:02;;;;;;;;;2.00;1.00;;;;;9.16;58.01;99442.97;4922966;28;46156;-47
2021/12/08 11:36:30;;;;;;;;;1.00;1.00;;;;;9.23;57.65;99441.63;4923157;28;45370;-47
2021/12/08 11:38:57;;;;;;;;;1.00;1.00;;;;;9.01;57.56;99441.22;4923226;28;45367;-47
2021/12/08 11:41:27;;;;;;;;;1.00;1.00;;;;;8.93;58.11;99451.53;4922911;28;45424;-46
2021/12/08 11:43:57;;;;;;;;;3.00;0.00;;;;;8.78;57.60;99445.25;4923103;28;45606;-46
2021/12/08 11:46:23;;;;;;;;;1.00;1.00;;;;;8.85;58.65;99453.75;4922814;28;45232;-48
2021/12/08 11:49:04;;;;;;;;;1.00;1.00;;;;;8.85;58.32;99451.94;4922663;28;45273;-46
2021/12/08 11:51:41;;;;;;;;;1.50;1.00;;;;;8.80;57.77;99451.38;4923452;28;46030;-50
2021/12/08 11:54:07;;;;;;;;;1.00;1.00;;;;;8.66;58.70;99460.22;4922924;28;45311;-46
2021/12/08 11:56:40;;;;;;;;;2.25;1.25;;;;;8.73;59.15;99466.06;4922718;28;45184;-47
2021/12/08 11:59:08;;;;;;;;;1.00;1.00;;;;;8.83;58.14;99461.03;4923131;28;45304;-48
2021/12/08 12:01:36;;;;;;;;;3.00;2.00;;;;;8.75;58.38;99449.94;4922613;28;45237;-49
2021/12/08 12:04:02;;;;;;;;;1.50;0.50;;;;;8.78;58.72;99471.09;4922421;28;47145;-46
2021/12/08 12:06:30;;;;;;;;;1.00;1.00;;;;;8.84;58.50;99466.28;4922533;28;45300;-47
2021/12/08 12:08:58;;;;;;;;;3.00;2.50;;;;;8.90;58.93;99475.75;4922886;28;45392;-46
2021/12/08 12:11:27;;;;;;;;;2.25;2.00;;;;;9.05;58.60;99469.47;4922224;28;45397;-47
2021/12/08 12:13:54;;;;;;;;;1.25;1.00;;;;;9.13;57.65;99467.19;4922601;28;45998;-47
2021/12/08 12:16:19;;;;;;;;;1.00;1.00;;;;;9.19;58.41;99471.31;4922490;28;45406;-47
2021/12/08 12:18:46;;;;;;;;;1.75;0.50;;;;;9.17;58.04;99459.88;4922886;28;45349;-47
2021/12/08 12:21:49;;;;;;;;;11.25;1.25;;;;;9.10;58.28;99473.59;4922443;28;45308;-46
2021/12/08 12:24:27;;;;;;;;;2.25;1.25;;;;;9.03;58.04;99466.88;4922434;28;46197;-49
2021/12/08 12:27:26;;;;;;;;;1.25;1.25;;;;;8.88;58.77;99488.31;4922334;28;45347;-49
2021/12/08 12:30:06;;;;;;;;;4.25;1.25;;;;;8.81;59.33;99482.50;4922694;28;45308;-47
2021/12/08 12:32:44;;;;;;;;;1.75;1.50;;;;;8.60;58.42;99460.53;4922309;28;45521;-48
2021/12/08 12:35:15;;;;;;;;;2.00;0.25;;;;;8.81;58.99;99490.50;4922551;28;46637;-48
2021/12/08 12:37:41;;;;;;;;;2.50;1.00;;;;;8.97;58.50;99494.00;4922605;28;45336;-46
2021/12/08 12:40:13;;;;;;;;;4.75;1.00;;;;;8.95;58.43;99495.91;4922310;28;45341;-47
2021/12/08 12:42:52;;;;;;;;;3.75;1.00;;;;;9.07;58.28;99494.31;4922193;28;45368;-49
2021/12/08 12:45:19;;;;;;;;;0.50;0.25;;;;;9.18;57.38;99491.88;4922197;28;46014;-46
2021/12/08 12:48:09;;;;;;;;;1.25;0.00;;;;;9.33;58.17;99506.13;4922205;28;45545;-45
2021/12/08 12:51:05;;;;;;;;;1.75;1.00;;;;;9.39;57.70;99509.28;4921816;28;45612;-46
2021/12/08 12:53:41;;;;;;;;;1.50;1.50;;;;;9.43;57.27;99505.47;4920595;28;45412;-47
2021/12/08 12:56:13;;;;;;;;;3.00;3.00;;;;;9.56;56.70;99512.75;4960849;28;48092;-47
2021/12/08 12:58:41;;;;;;;;;0.25;0.00;;;;;9.71;56.36;99514.47;4922302;28;45479;-47
2021/12/08 13:01:10;;;;;;;;;1.00;1.00;;;;;9.74;56.25;99500.91;4924195;28;45462;-50
2021/12/08 13:03:51;;;;;;;;;0.75;0.75;;;;;9.71;56.26;99518.00;4926276;28;45848;-47
2021/12/08 13:06:39;;;;;;;;;3.25;1.00;;;;;9.62;56.43;99507.88;4929186;28;46332;-47
2021/12/08 13:09:08;;;;;;;;;1.50;0.00;;;;;9.64;54.95;99515.81;4921942;28;45311;-46
2021/12/08 13:11:52;;;;;;;;;1.00;0.25;;;;;9.53;55.28;99511.09;4926949;28;45422;-46
2021/12/08 13:14:20;;;;;;;;;1.00;0.00;;;;;9.34;55.14;99503.38;4918814;28;45980;-46
2021/12/08 13:16:46;;;;;;;;;1.00;1.00;;;;;9.36;56.06;99501.44;4921674;28;47247;-47
2021/12/08 13:19:11;;;;;;;;;0.25;0.25;;;;;9.45;55.17;99514.25;4936463;28;45415;-47
2021/12/08 13:21:45;;;;;;;;;0.75;0.00;;;;;9.43;54.76;99512.66;4928849;28;45506;-46
2021/12/08 13:24:38;;;;;;;;;0.00;0.00;;;;;9.42;55.35;99517.13;4923515;28;45400;-47
2021/12/08 13:27:13;;;;;;;;;0.00;0.00;;;;;9.38;55.12;99520.94;4921680;28;47205;-48
2021/12/08 13:29:42;;;;;;;;;1.25;0.00;;;;;9.48;54.98;99522.09;4933663;28;45658;-47
2021/12/08 13:32:16;;;;;;;;;0.00;0.00;;;;;9.34;54.74;99522.09;4924612;28;45328;-49
2021/12/08 13:34:41;;;;;;;;;3.00;0.00;;;;;9.31;54.45;99532.97;4921854;28;45280;-48
2021/12/08 13:37:23;;;;;;;;;0.50;0.00;;;;;9.40;55.22;99529.72;4932124;28;46313;-48
2021/12/08 13:39:50;;;;;;;;;0.00;0.00;;;;;9.49;55.13;99531.84;4933281;28;45330;-49
2021/12/08 13:42:28;;;;;;;;;1.00;1.00;;;;;9.57;54.61;99538.53;4922068;28;45335;-47
2021/12/08 13:44:58;;;;;;;;;0.50;0.00;;;;;9.64;55.03;99545.22;4921336;28;45387;-48
2021/12/08 13:47:35;;;;;;;;;1.00;0.00;;;;;9.67;54.50;99545.94;4921776;28;45419;-47
2021/12/08 13:50:06;;;;;;;;;0.00;0.00;;;;;9.73;55.52;99544.69;4921367;28;45459;-48
2021/12/08 13:52:34;;;;;;;;;0.50;0.00;;;;;9.76;54.67;99536.47;4921666;28;45240;-47
2021/12/08 13:55:09;;;;;;;;;0.00;0.00;;;;;9.79;53.38;99557.66;4921444;28;45514;-47
2021/12/08 13:57:40;;;;;;;;;0.00;0.00;;;;;9.71;53.52;99559.97;4921450;28;46162;-46
2021/12/08 14:00:18;;;;;;;;;0.00;0.00;;;;;9.51;53.57;99561.19;4921071;28;45372;-47
2021/12/08 14:03:05;;;;;;;;;0.00;0.00;;;;;9.53;53.66;99564.59;4921262;28;45476;-48
2021/12/08 14:05:35;;;;;;;;;1.25;0.00;;;;;9.46;54.05;99561.44;4925561;28;45532;-46
2021/12/08 14:08:06;;;;;;;;;1.00;0.00;;;;;9.43;54.13;99566.16;4916242;28;45486;-48
2021/12/08 14:10:37;;;;;;;;;0.00;0.00;;;;;9.38;54.68;99579.78;4919495;28;45365;-46
2021/12/08 14:13:12;;;;;;;;;0.50;0.00;;;;;9.34;54.93;99572.03;4921997;28;45483;-47
2021/12/08 14:15:45;;;;;;;;;2.00;1.00;;;;;9.35;55.13;99585.31;4923262;28;45514;-47
2021/12/08 14:18:27;;;;;;;;;0.00;0.00;;;;;9.26;54.50;99585.88;4923475;28;46997;-47
2021/12/08 14:20:54;;;;;;;;;0.00;0.00;;;;;9.18;55.43;99569.41;4922588;28;45521;-48
2021/12/08 14:23:22;;;;;;;;;0.00;0.00;;;;;9.28;55.61;99585.75;4924488;28;45203;-47
2021/12/08 14:26:17;;;;;;;;;0.00;0.00;;;;;9.32;55.45;99588.16;4923850;28;45423;-47
2021/12/08 14:28:57;;;;;;;;;0.00;0.00;;;;;9.25;55.22;99589.50;4908786;28;45169;-48
2021/12/08 14:31:29;;;;;;;;;2.75;1.00;;;;;9.12;55.96;99593.81;4923160;28;45528;-48
2021/12/08 14:34:11;;;;;;;;;0.00;0.00;;;;;9.08;56.35;99594.97;4923714;28;45526;-47
2021/12/08 14:37:07;;;;;;;;;0.00;0.00;;;;;9.08;56.42;99597.63;4916979;28;45938;-48
2021/12/08 14:39:38;;;;;;;;;0.25;0.25;;;;;9.03;56.33;99600.56;4923896;28;46184;-49
2021/12/08 14:42:09;;;;;;;;;0.00;0.00;;;;;8.99;56.54;99601.69;4923847;28;45459;-51
2021/12/08 14:44:42;;;;;;;;;1.00;1.00;;;;;9.02;56.90;99608.66;4924062;28;45320;-47
2021/12/08 14:47:13;;;;;;;;;0.00;0.00;;;;;9.06;57.10;99611.09;4923933;28;45779;-47
2021/12/08 14:49:48;;;;;;;;;2.25;0.75;;;;;9.06;57.03;99616.44;4924368;28;46283;-50
2021/12/08 14:52:17;;;;;;;;;0.00;0.00;;;;;8.98;56.94;99626.72;4923830;28;45241;-46
2021/12/08 14:55:03;;;;;;;;;3.75;0.00;;;;;8.81;58.36;99620.59;4923043;28;45371;-48
2021/12/08 14:57:31;;;;;;;;;0.00;0.00;;;;;8.78;59.28;99626.97;4923558;28;45538;-48
2021/12/08 15:00:00;;;;;;;;;0.75;0.75;;;;;8.64;58.18;99629.56;4923590;28;46410;-48
2021/12/08 15:02:35;;;;;;;;;0.00;0.00;;;;;8.67;59.34;99632.94;4922865;28;45713;-49
2021/12/08 15:05:08;;;;;;;;;0.00;0.00;;;;;8.70;58.60;99639.88;4924039;28;45372;-47
2021/12/08 15:07:34;;;;;;;;;0.00;0.00;;;;;8.66;58.88;99639.22;4923732;28;45450;-49
2021/12/08 15:10:01;;;;;;;;;0.00;0.00;;;;;8.68;58.88;99645.31;4923394;28;45311;-45
2021/12/08 15:12:27;;;;;;;;;0.00;0.00;;;;;8.67;59.34;99645.44;4923175;28;45336;-49
2021/12/08 15:14:52;;;;;;;;;0.00;0.00;;;;;8.66;59.61;99644.56;4923319;28;45307;-46
2021/12/08 15:17:32;;;;;;;;;0.00;0.00;;;;;8.70;59.66;99645.22;4922797;28;45577;-49
2021/12/08 15:19:59;;;;;;;;;1.00;0.00;;;;;8.71;59.41;99642.47;4923298;28;45338;-47
2021/12/08 15:22:27;;;;;;;;;0.00;0.00;;;;;8.73;59.33;99648.59;4921769;28;45295;-48
2021/12/08 15:25:14;;;;;;;;;0.00;0.00;;;;;8.70;59.48;99646.09;4920908;28;45586;-46
2021/12/08 15:27:42;;;;;;;;;1.00;0.00;;;;;8.62;59.87;99637.66;4922179;28;46365;-47
2021/12/08 15:30:09;;;;;;;;;0.00;0.00;;;;;8.71;59.79;99652.31;4921988;28;47076;-46
2021/12/08 15:32:35;;;;;;;;;0.00;0.00;;;;;8.64;59.26;99653.59;4922273;28;45327;-48
2021/12/08 15:35:18;;;;;;;;;2.00;1.00;;;;;8.55;60.09;99652.28;4935447;28;45225;-47
2021/12/08 15:37:55;;;;;;;;;0.25;0.25;;;;;8.51;59.86;99656.06;4923464;28;45435;-46
2021/12/08 15:40:39;;;;;;;;;0.75;0.75;;;;;8.49;60.22;99657.13;4920552;28;47338;-47
2021/12/08 15:43:10;;;;;;;;;0.00;0.00;;;;;8.46;60.22;99665.28;4922958;28;45245;-47
2021/12/08 15:45:37;;;;;;;;;1.00;1.00;;;;;8.33;60.46;99647.28;4923092;28;45330;-47
2021/12/08 15:48:11;;;;;;;;;1.25;1.00;;;;;8.43;60.60;99668.13;4922707;28;45529;-46
2021/12/08 15:50:44;;;;;;;;;2.00;1.00;;;;;8.35;60.21;99665.84;4923257;28;46308;-46
2021/12/08 15:53:16;;;;;;;;;1.00;1.00;;;;;8.41;60.39;99673.56;4922944;28;45279;-48
2021/12/08 15:55:43;;;;;;;;;1.00;1.00;;;;;8.41;60.26;99673.56;4923007;28;45502;-48
2021/12/08 15:58:11;;;;;;;;;1.75;1.00;;;;;8.46;60.47;99682.19;4933781;28;45346;-46
2021/12/08 16:00:48;;;;;;;;;0.00;0.00;;;;;8.45;60.08;99684.94;4922484;28;46346;-48
2021/12/08 16:03:19;;;;;;;;;1.00;1.00;;;;;8.33;60.67;99690.00;4922743;28;45320;-47
2021/12/08 16:05:45;;;;;;;;;2.00;1.25;;;;;8.33;60.13;99692.69;4922550;28;45434;-48
2021/12/08 16:08:12;;;;;;;;;2.00;0.75;;;;;8.26;60.93;99685.88;4920580;28;45597;-46
2021/12/08 16:10:44;;;;;;;;;2.50;2.50;;;;;8.25;60.78;99691.31;4921196;28;46376;-46
2021/12/08 16:13:18;;;;;;;;;3.00;2.00;;;;;8.23;60.51;99680.72;4922130;28;45510;-47
2021/12/08 16:15:56;;;;;;;;;3.00;1.25;;;;;8.29;61.21;99685.72;4922658;28;45302;-47
2021/12/08 16:18:23;;;;;;;;;7.00;2.75;;;;;8.34;60.53;99690.84;4920854;28;45545;-49
2021/12/08 16:20:50;;;;;;;;;3.00;3.00;;;;;8.35;59.89;99697.91;4920308;28;46384;-49
2021/12/08 16:23:15;;;;;;;;;4.25;4.25;;;;;8.28;59.78;99697.34;4920869;28;45495;-46
2021/12/08 16:25:41;;;;;;;;;4.00;3.00;;;;;8.22;59.90;99700.34;4921773;28;45458;-48
2021/12/08 16:28:09;;;;;;;;;5.25;3.75;;;;;8.22;60.16;99707.50;4922051;28;45304;-50
2021/12/08 16:30:36;;;;;;;;;6.00;2.00;;;;;8.23;59.71;99715.44;4921115;28;46169;-47
2021/12/08 16:33:02;;;;;;;;;5.50;5.50;;;;;8.23;60.00;99722.56;4921994;28;45854;-48
2021/12/08 16:35:28;;;;;;;;;2.00;2.00;;;;;8.26;60.24;99727.72;4922109;28;45332;-47
2021/12/08 16:37:57;;;;;;;;;6.50;5.50;;;;;8.21;60.18;99717.31;4922123;28;45472;-47
2021/12/08 16:43:00;;;;;;;;;13.00;11.25;;;;;8.25;60.34;99726.88;4921891;28;46170;-49
2021/12/08 16:43:18;;;;;;;;;13.00;7.25;;;;;8.29;59.96;99719.56;4922252;28;45393;-46
2021/12/08 16:45:47;;;;;;;;;10.25;7.75;;;;;8.28;60.09;99724.03;4922843;28;45325;-46
2021/12/08 16:48:16;;;;;;;;;5.50;4.00;;;;;8.26;60.17;99727.72;4921996;28;45381;-46
2021/12/08 16:50:42;;;;;;;;;3.75;1.25;;;;;8.18;60.31;99736.16;4921653;28;46117;-49
2021/12/08 16:53:11;;;;;;;;;0.00;0.00;;;;;8.15;60.03;99732.78;4921398;28;45517;-48
2021/12/08 16:55:38;;;;;;;;;3.50;2.00;;;;;8.12;60.84;99735.59;4922291;28;45292;-50
2021/12/08 16:58:06;;;;;;;;;2.25;2.25;;;;;8.14;60.96;99750.63;4921836;28;45225;-46
2021/12/08 17:00:36;;;;;;;;;6.00;4.75;;;;;8.12;60.53;99757.81;4921609;28;46277;-50
2021/12/08 17:03:07;;;;;;;;;6.00;3.00;;;;;8.08;61.09;99758.91;4921734;28;45367;-47
2021/12/08 17:05:33;;;;;;;;;6.50;2.00;;;;;8.05;61.27;99763.56;4927305;28;45293;-49
2021/12/08 17:07:58;;;;;;;;;1.75;1.75;;;;;8.05;61.36;99764.44;4921232;28;45436;-49
2021/12/08 17:10:24;;;;;;;;;3.00;2.00;;;;;8.06;61.59;99765.28;4931246;28;46005;-48
2021/12/08 17:12:49;;;;;;;;;7.00;5.00;;;;;8.04;61.44;99769.84;4924755;28;45347;-46
2021/12/08 17:15:15;;;;;;;;;8.25;4.50;;;;;8.04;61.54;99780.50;4921625;28;45359;-48
2021/12/08 17:17:41;;;;;;;;;4.50;4.00;;;;;8.05;62.04;99780.44;4921545;28;45376;-48
2021/12/08 17:20:09;;;;;;;;;4.00;3.00;;;;;8.03;61.65;99784.13;4921505;28;46851;-45
2021/12/08 17:22:34;;;;;;;;;3.00;2.00;;;;;7.99;61.72;99789.59;4921340;28;45214;-49
2021/12/08 17:25:00;;;;;;;;;4.25;3.75;;;;;8.01;62.21;99797.53;4920852;28;45209;-47
2021/12/08 17:27:26;;;;;;;;;2.00;2.00;;;;;7.99;61.86;99799.44;4921594;28;45220;-49
2021/12/08 17:29:52;;;;;;;;;1.75;1.25;;;;;7.91;62.02;99798.97;4921180;28;46246;-49
2021/12/08 17:32:17;;;;;;;;;3.00;3.00;;;;;7.89;62.17;99796.38;4921195;28;45374;-50
2021/12/08 17:34:45;;;;;;;;;3.50;2.50;;;;;7.86;62.79;99801.84;4921776;28;45388;-48
2021/12/08 17:37:10;;;;;;;;;2.00;1.00;;;;;7.83;62.19;99799.31;4919882;28;45338;-48
2021/12/08 17:39:39;;;;;;;;;7.75;3.00;;;;;7.87;62.91;99805.38;4920903;28;45541;-48